createdAt,value
2018-05-21T00:01:54.244Z,67.13
2018-05-21T00:04:20.713Z,65.46
2018-05-21T00:06:47.081Z,65.44
2018-05-21T00:09:14.669Z,65.25
2018-05-21T00:11:41.303Z,64.21
2018-05-21T00:14:07.711Z,63.21
2018-05-21T00:16:34.850Z,63.25
2018-05-21T00:19:02.019Z,63.12
2018-05-21T00:21:29.229Z,62.46
2018-05-21T00:23:55.761Z,63.19
2018-05-21T00:26:22.216Z,64.00
2018-05-21T00:28:50.322Z,62.39
2018-05-21T00:31:16.927Z,62.03
2018-05-21T00:33:43.405Z,62.58
2018-05-21T00:36:09.803Z,62.08
2018-05-21T00:38:36.338Z,62.16
2018-05-21T00:41:03.469Z,62.44
2018-05-21T00:43:30.149Z,62.48
2018-05-21T00:45:56.529Z,62.91
2018-05-21T00:48:22.930Z,63.51
2018-05-21T00:50:49.374Z,62.74
2018-05-21T00:53:15.754Z,64.01
2018-05-21T00:55:42.904Z,65.02
2018-05-21T00:58:09.321Z,66.41
2018-05-21T01:00:35.701Z,67.64
2018-05-21T01:03:02.083Z,69.23
2018-05-21T01:05:29.213Z,69.83
2018-05-21T01:07:55.622Z,70.49
2018-05-21T01:10:21.985Z,70.25
2018-05-21T01:12:48.467Z,70.02
2018-05-21T01:15:14.891Z,70.79
2018-05-21T01:17:42.039Z,70.99
2018-05-21T01:20:09.220Z,70.21
2018-05-21T01:22:35.627Z,70.81
2018-05-21T01:25:02.793Z,71.90
2018-05-21T01:27:29.236Z,70.70
2018-05-21T01:29:55.587Z,70.27
2018-05-21T01:32:22.007Z,71.25
2018-05-21T01:34:48.402Z,71.67
2018-05-21T01:37:15.597Z,71.51
2018-05-21T01:39:42.035Z,71.85
2018-05-21T01:42:08.452Z,72.02
2018-05-21T01:44:34.865Z,71.42
2018-05-21T01:47:01.616Z,71.33
2018-05-21T01:49:27.990Z,71.66
2018-05-21T01:51:54.475Z,71.29
2018-05-21T01:54:21.012Z,71.28
2018-05-21T01:56:47.400Z,71.69
2018-05-21T01:59:13.802Z,71.46
2018-05-21T02:01:40.243Z,71.37
2018-05-21T02:04:08.275Z,69.78
2018-05-21T02:06:36.670Z,67.09
2018-05-21T02:09:07.317Z,66.76
2018-05-21T02:11:33.773Z,66.59
2018-05-21T02:14:00.195Z,67.72
2018-05-21T02:16:26.637Z,70.02
2018-05-21T02:18:53.050Z,69.79
2018-05-21T02:21:19.476Z,69.78
2018-05-21T02:23:46.130Z,69.84
2018-05-21T02:26:12.501Z,70.33
2018-05-21T02:28:39.709Z,70.74
2018-05-21T02:31:06.265Z,70.89
2018-05-21T02:33:32.753Z,70.91
2018-05-21T02:35:59.243Z,71.44
2018-05-21T02:38:26.406Z,71.92
2018-05-21T02:40:53.010Z,69.76
2018-05-21T02:43:19.422Z,68.20
2018-05-21T02:45:45.878Z,68.40
2018-05-21T02:48:12.684Z,67.52
2018-05-21T02:50:39.140Z,66.85
2018-05-21T02:53:05.714Z,67.36
2018-05-21T02:55:32.113Z,68.85
2018-05-21T02:57:58.503Z,69.42
2018-05-21T03:00:24.919Z,69.39
2018-05-21T03:02:51.557Z,69.23
2018-05-21T03:05:18.785Z,70.32
2018-05-21T03:07:45.128Z,70.72
2018-05-21T03:10:12.987Z,71.10
2018-05-21T03:12:39.424Z,71.73
2018-05-21T03:15:06.573Z,70.58
2018-05-21T03:17:33.610Z,69.70
2018-05-21T03:20:00.051Z,70.72
2018-05-21T03:22:26.455Z,71.38
2018-05-21T03:24:52.860Z,72.72
2018-05-21T03:27:19.234Z,72.52
2018-05-21T03:29:45.663Z,72.26
2018-05-21T03:32:12.084Z,72.28
2018-05-21T03:34:38.554Z,71.97
2018-05-21T03:37:05.231Z,72.22
2018-05-21T03:39:31.612Z,72.82
2018-05-21T03:41:58.042Z,72.79
2018-05-21T03:44:24.472Z,72.56
2018-05-21T03:46:51.271Z,72.18
2018-05-21T03:49:17.903Z,71.98
2018-05-21T03:51:44.438Z,72.75
2018-05-21T03:54:11.068Z,73.11
2018-05-21T03:56:37.465Z,72.31
2018-05-21T03:59:22.606Z,72.40
2018-05-21T04:02:08.136Z,73.32
2018-05-21T04:04:34.607Z,72.89
2018-05-21T04:07:00.982Z,71.60
2018-05-21T04:09:27.434Z,72.37
2018-05-21T04:11:53.894Z,72.74
2018-05-21T04:14:20.257Z,71.82
2018-05-21T04:16:46.624Z,71.67
2018-05-21T04:19:13.782Z,68.79
2018-05-21T04:21:40.907Z,69.34
2018-05-21T04:24:07.500Z,69.39
2018-05-21T04:26:34.729Z,69.45
2018-05-21T04:29:01.954Z,68.88
2018-05-21T04:31:28.340Z,67.19
2018-05-21T04:33:55.155Z,67.90
2018-05-21T04:36:22.385Z,69.37
2018-05-21T04:38:48.765Z,68.90
2018-05-21T04:41:15.343Z,67.68
2018-05-21T04:43:41.764Z,66.15
2018-05-21T04:46:08.557Z,65.81
2018-05-21T04:48:35.704Z,66.94
2018-05-21T04:51:02.880Z,65.84
2018-05-21T04:53:29.320Z,65.71
2018-05-21T04:55:55.687Z,64.26
2018-05-21T04:58:22.363Z,63.78
2018-05-21T05:00:48.816Z,63.00
2018-05-21T05:03:15.214Z,62.69
2018-05-21T05:05:42.367Z,62.90
2018-05-21T05:08:09.541Z,62.02
2018-05-21T05:10:36.268Z,62.19
2018-05-21T05:13:02.679Z,61.22
2018-05-21T05:15:29.782Z,61.20
2018-05-21T05:17:56.216Z,60.92
2018-05-21T05:20:22.579Z,60.08
2018-05-21T05:22:50.446Z,59.94
2018-05-21T05:25:16.846Z,59.64
2018-05-21T05:27:43.199Z,59.23
2018-05-21T05:30:09.896Z,58.83
2018-05-21T05:32:36.524Z,58.30
2018-05-21T05:35:03.725Z,58.20
2018-05-21T05:37:30.149Z,57.33
2018-05-21T05:39:56.548Z,57.38
2018-05-21T05:42:22.939Z,57.26
2018-05-21T05:44:49.321Z,56.60
2018-05-21T05:47:15.744Z,56.17
2018-05-21T05:49:42.149Z,55.73
2018-05-21T05:52:09.310Z,55.18
2018-05-21T05:54:35.729Z,55.93
2018-05-21T05:57:02.908Z,55.42
2018-05-21T05:59:29.312Z,54.81
2018-05-21T06:01:56.495Z,55.51
2018-05-21T06:04:23.131Z,55.30
2018-05-21T06:06:49.535Z,54.58
2018-05-21T06:09:16.634Z,54.78
2018-05-21T06:11:43.046Z,55.44
2018-05-21T06:14:09.672Z,54.76
2018-05-21T06:16:36.323Z,54.28
2018-05-21T06:19:02.726Z,54.54
2018-05-21T06:21:29.936Z,53.88
2018-05-21T06:23:56.273Z,53.70
2018-05-21T06:26:22.657Z,52.56
2018-05-21T06:28:49.012Z,52.84
2018-05-21T06:31:15.459Z,52.58
2018-05-21T06:33:41.865Z,54.33
2018-05-21T06:36:08.295Z,52.14
2018-05-21T06:38:34.808Z,51.32
2018-05-21T06:41:01.981Z,50.82
2018-05-21T06:43:28.394Z,51.68
2018-05-21T06:45:55.760Z,51.24
2018-05-21T06:48:22.368Z,51.07
2018-05-21T06:50:48.740Z,51.34
2018-05-21T06:53:15.177Z,50.42
2018-05-21T06:55:41.555Z,50.00
2018-05-21T06:58:07.998Z,50.04
2018-05-21T07:00:34.490Z,49.80
2018-05-21T07:03:00.867Z,49.66
2018-05-21T07:05:27.287Z,50.16
2018-05-21T07:07:53.757Z,49.33
2018-05-21T07:10:20.875Z,48.93
2018-05-21T07:12:48.042Z,48.56
2018-05-21T07:15:15.196Z,49.52
2018-05-21T07:17:42.319Z,48.29
2018-05-21T07:20:08.735Z,48.53
2018-05-21T07:22:35.106Z,49.27
2018-05-21T07:25:02.248Z,48.61
2018-05-21T07:27:28.790Z,47.58
2018-05-21T07:29:55.942Z,47.35
2018-05-21T07:32:23.058Z,47.20
2018-05-21T07:34:49.493Z,48.19
2018-05-21T07:37:15.931Z,47.50
2018-05-21T07:39:42.324Z,47.15
2018-05-21T07:42:08.748Z,46.41
2018-05-21T07:44:35.123Z,45.55
2018-05-21T07:47:01.511Z,45.79
2018-05-21T07:49:27.893Z,45.94
2018-05-21T07:51:54.993Z,46.64
2018-05-21T07:54:21.434Z,46.12
2018-05-21T07:56:47.876Z,45.78
2018-05-21T07:59:14.276Z,46.30
2018-05-21T08:01:41.490Z,45.72
2018-05-21T08:04:07.874Z,44.87
2018-05-21T08:06:34.311Z,45.42
2018-05-21T08:09:00.843Z,44.73
2018-05-21T08:11:27.216Z,45.42
2018-05-21T08:13:53.612Z,45.71
2018-05-21T08:16:20.081Z,45.42
2018-05-21T08:18:46.493Z,46.40
2018-05-21T08:21:12.957Z,45.93
2018-05-21T08:23:39.629Z,45.76
2018-05-21T08:26:06.785Z,46.67
2018-05-21T08:28:33.275Z,44.52
2018-05-21T08:30:59.738Z,44.39
2018-05-21T08:33:26.893Z,44.64
2018-05-21T08:35:54.067Z,44.92
2018-05-21T08:38:20.474Z,44.10
2018-05-21T08:40:47.595Z,44.75
2018-05-21T08:43:14.076Z,44.45
2018-05-21T08:45:40.498Z,44.10
2018-05-21T08:48:07.747Z,43.50
2018-05-21T08:50:34.911Z,44.47
2018-05-21T08:53:01.387Z,44.48
2018-05-21T08:55:27.795Z,44.23
2018-05-21T08:57:54.296Z,44.00
2018-05-21T09:00:21.542Z,44.56
2018-05-21T09:02:47.897Z,44.55
2018-05-21T09:05:14.641Z,44.35
2018-05-21T09:07:41.079Z,43.21
2018-05-21T09:10:07.865Z,42.91
2018-05-21T09:12:34.326Z,43.60
2018-05-21T09:15:00.779Z,44.10
2018-05-21T09:17:27.209Z,43.62
2018-05-21T09:19:53.601Z,43.25
2018-05-21T09:22:20.000Z,42.86
2018-05-21T09:24:46.382Z,41.83
2018-05-21T09:27:13.582Z,41.08
2018-05-21T09:29:40.034Z,42.24
2018-05-21T09:32:06.422Z,41.29
2018-05-21T09:34:32.888Z,41.23
2018-05-21T09:37:00.550Z,42.37
2018-05-21T09:39:27.450Z,41.40
2018-05-21T09:41:53.958Z,41.71
2018-05-21T09:44:20.541Z,41.50
2018-05-21T09:46:46.929Z,40.96
2018-05-21T09:49:13.346Z,39.96
2018-05-21T09:51:39.734Z,39.98
2018-05-21T09:54:06.117Z,39.38
2018-05-21T09:56:32.514Z,40.17
2018-05-21T09:58:58.861Z,39.44
2018-05-21T10:01:25.287Z,39.12
2018-05-21T10:03:51.927Z,38.70
2018-05-21T10:06:18.377Z,38.93
2018-05-21T10:08:45.083Z,39.28
2018-05-21T10:11:11.502Z,37.98
2018-05-21T10:13:38.288Z,38.95
2018-05-21T10:16:04.684Z,38.55
2018-05-21T10:18:31.732Z,38.57
2018-05-21T10:20:58.553Z,38.65
2018-05-21T10:23:25.684Z,37.02
2018-05-21T10:25:52.826Z,38.54
2018-05-21T10:28:19.232Z,37.08
2018-05-21T10:30:45.602Z,37.15
2018-05-21T10:33:12.760Z,37.54
2018-05-21T10:35:39.935Z,36.84
2018-05-21T10:38:06.331Z,36.93
2018-05-21T10:40:32.721Z,35.95
2018-05-21T10:42:59.122Z,38.14
2018-05-21T10:45:25.651Z,38.40
2018-05-21T10:47:52.013Z,37.29
2018-05-21T10:50:18.424Z,37.48
2018-05-21T10:52:44.833Z,38.81
2018-05-21T10:55:11.950Z,39.00
2018-05-21T10:57:38.675Z,38.66
2018-05-21T11:00:05.274Z,38.21
2018-05-21T11:02:32.404Z,37.00
2018-05-21T11:04:59.573Z,38.51
2018-05-21T11:07:26.922Z,37.32
2018-05-21T11:09:54.150Z,36.28
2018-05-21T11:12:20.526Z,36.84
2018-05-21T11:14:46.989Z,35.96
2018-05-21T11:17:13.351Z,36.35
2018-05-21T11:19:39.788Z,34.83
2018-05-21T11:22:06.285Z,35.24
2018-05-21T11:24:32.661Z,34.92
2018-05-21T11:26:59.808Z,34.11
2018-05-21T11:29:26.969Z,34.33
2018-05-21T11:31:54.342Z,33.68
2018-05-21T11:34:20.756Z,33.36
2018-05-21T11:36:47.866Z,34.23
2018-05-21T11:39:14.549Z,33.08
2018-05-21T11:41:40.966Z,32.60
2018-05-21T11:44:08.107Z,33.35
2018-05-21T11:46:34.490Z,33.82
2018-05-21T11:49:00.945Z,33.90
2018-05-21T11:51:27.471Z,33.60
2018-05-21T11:53:53.833Z,32.50
2018-05-21T11:56:20.300Z,32.95
2018-05-21T11:58:46.739Z,32.39
2018-05-21T12:01:13.866Z,32.13
2018-05-21T12:03:41.047Z,31.59
2018-05-21T12:06:07.493Z,31.67
2018-05-21T12:08:33.934Z,31.65
2018-05-21T12:11:00.397Z,31.66
2018-05-21T12:13:26.883Z,31.43
2018-05-21T12:15:53.285Z,32.13
2018-05-21T12:18:20.405Z,31.30
2018-05-21T12:20:46.810Z,30.06
2018-05-21T12:23:13.173Z,29.53
2018-05-21T12:25:39.598Z,31.07
2018-05-21T12:28:06.056Z,31.99
2018-05-21T12:30:33.195Z,30.28
2018-05-21T12:32:59.688Z,29.85
2018-05-21T12:35:26.057Z,29.39
2018-05-21T12:37:53.224Z,28.97
2018-05-21T12:40:20.406Z,28.08
2018-05-21T12:42:46.892Z,29.50
2018-05-21T12:45:13.318Z,29.11
2018-05-21T12:47:40.220Z,29.58
2018-05-21T12:50:07.720Z,28.72
2018-05-21T12:52:34.122Z,27.47
2018-05-21T12:55:00.482Z,26.89
2018-05-21T12:57:27.002Z,27.02
2018-05-21T12:59:53.436Z,26.65
2018-05-21T13:02:20.129Z,26.80
2018-05-21T13:04:47.290Z,27.00
2018-05-21T13:07:13.766Z,26.63
2018-05-21T13:09:40.321Z,26.52
2018-05-21T13:12:06.784Z,26.85
2018-05-21T13:14:33.293Z,26.59
2018-05-21T13:16:59.710Z,25.12
2018-05-21T13:19:26.494Z,24.76
2018-05-21T13:21:53.710Z,23.91
2018-05-21T13:24:20.147Z,21.51
2018-05-21T13:26:48.680Z,21.61
2018-05-21T13:29:15.158Z,20.36
2018-05-21T13:31:41.726Z,19.60
2018-05-21T13:34:08.305Z,18.30
2018-05-21T13:36:34.741Z,17.61
2018-05-21T13:39:01.557Z,17.62
2018-05-21T13:41:28.028Z,17.15
2018-05-21T13:43:54.681Z,16.19
2018-05-21T13:46:22.123Z,17.20
2018-05-21T13:48:48.557Z,16.23
2018-05-21T13:51:14.921Z,16.83
2018-05-21T13:53:42.248Z,15.91
2018-05-21T13:56:08.796Z,16.76
2018-05-21T13:58:35.263Z,16.95
2018-05-21T14:01:01.613Z,16.91
2018-05-21T14:03:27.978Z,19.64
2018-05-21T14:05:54.589Z,18.63
2018-05-21T14:08:21.167Z,21.90
2018-05-21T14:10:47.655Z,24.56
2018-05-21T14:13:14.047Z,23.18
2018-05-21T14:15:41.198Z,22.51
2018-05-21T14:18:08.318Z,22.01
2018-05-21T14:20:34.851Z,20.18
2018-05-21T14:23:01.614Z,20.49
2018-05-21T14:25:28.865Z,20.19
2018-05-21T14:27:55.975Z,19.42
2018-05-21T14:30:22.428Z,18.04
2018-05-21T14:32:48.841Z,17.04
2018-05-21T14:35:15.372Z,16.63
2018-05-21T14:37:41.766Z,15.47
2018-05-21T14:40:08.920Z,15.00
2018-05-21T14:42:36.215Z,15.59
2018-05-21T14:45:02.663Z,15.97
2018-05-21T14:47:29.136Z,15.91
2018-05-21T14:49:56.634Z,15.34
2018-05-21T14:52:23.010Z,15.96
2018-05-21T14:54:49.777Z,17.19
2018-05-21T14:57:16.242Z,19.21
2018-05-21T14:59:42.618Z,21.54
2018-05-21T15:02:09.185Z,21.08
2018-05-21T15:04:35.510Z,22.36
2018-05-21T15:07:02.033Z,22.92
2018-05-21T15:09:29.191Z,23.18
2018-05-21T15:11:56.305Z,24.04
2018-05-21T15:14:23.369Z,24.56
2018-05-21T15:16:51.546Z,26.90
2018-05-21T15:19:18.757Z,28.08
2018-05-21T15:21:45.224Z,29.45
2018-05-21T15:24:12.706Z,31.87
2018-05-21T15:26:39.075Z,32.63
2018-05-21T15:29:05.479Z,33.91
2018-05-21T15:31:31.967Z,35.37
2018-05-21T15:33:58.434Z,36.49
2018-05-21T15:36:26.331Z,37.51
2018-05-21T15:38:52.995Z,37.76
2018-05-21T15:41:19.486Z,38.44
2018-05-21T15:43:45.921Z,38.93
2018-05-21T15:46:12.387Z,40.39
2018-05-21T15:48:38.826Z,40.87
2018-05-21T15:51:05.318Z,39.88
2018-05-21T15:53:31.753Z,40.31
2018-05-21T15:55:58.202Z,40.33
2018-05-21T15:58:24.694Z,40.50
2018-05-21T16:00:51.938Z,42.06
2018-05-21T16:03:18.530Z,41.66
2018-05-21T16:05:44.995Z,41.92
2018-05-21T16:08:11.382Z,42.36
2018-05-21T16:10:37.846Z,42.22
2018-05-21T16:13:05.250Z,42.23
2018-05-21T16:15:31.752Z,41.54
2018-05-21T16:17:58.249Z,41.90
2018-05-21T16:20:24.597Z,41.14
2018-05-21T16:22:51.047Z,40.91
2018-05-21T16:25:17.539Z,40.07
2018-05-21T16:27:44.071Z,39.33
2018-05-21T16:30:10.623Z,39.94
2018-05-21T16:32:36.986Z,39.47
2018-05-21T16:35:03.544Z,39.32
2018-05-21T16:37:30.691Z,40.11
2018-05-21T16:39:57.927Z,40.47
2018-05-21T16:42:24.412Z,39.02
2018-05-21T16:44:50.883Z,37.90
2018-05-21T16:47:17.291Z,36.22
2018-05-21T16:49:43.673Z,34.48
2018-05-21T16:52:11.214Z,32.37
2018-05-21T16:54:37.752Z,31.38
2018-05-21T16:57:04.237Z,27.93
2018-05-21T16:59:30.639Z,26.61
2018-05-21T17:01:57.907Z,24.69
2018-05-21T17:04:25.286Z,25.68
2018-05-21T17:06:51.782Z,23.48
2018-05-21T17:09:19.288Z,22.30
2018-05-21T17:11:45.870Z,20.42
2018-05-21T17:14:13.269Z,19.49
2018-05-21T17:16:39.763Z,20.43
2018-05-21T17:19:07.122Z,22.08
2018-05-21T17:21:34.373Z,22.57
2018-05-21T17:24:02.556Z,21.60
2018-05-21T17:26:29.760Z,21.25
2018-05-21T17:28:56.129Z,22.42
2018-05-21T17:31:23.278Z,22.75
2018-05-21T17:33:50.404Z,21.43
2018-05-21T17:36:16.880Z,21.60
2018-05-21T17:38:43.288Z,20.65
2018-05-21T17:41:10.443Z,21.63
2018-05-21T17:43:37.586Z,20.63
2018-05-21T17:46:04.776Z,19.97
2018-05-21T17:48:31.221Z,20.27
2018-05-21T17:50:57.789Z,21.18
2018-05-21T17:53:24.481Z,23.25
2018-05-21T17:55:51.353Z,25.91
2018-05-21T17:58:18.099Z,27.80
2018-05-21T18:00:45.917Z,29.40
2018-05-21T18:03:12.680Z,30.15
2018-05-21T18:05:39.689Z,31.01
2018-05-21T18:08:08.788Z,31.75
2018-05-21T18:10:35.562Z,32.69
2018-05-21T18:13:02.060Z,33.77
2018-05-21T18:15:29.233Z,32.97
2018-05-21T18:17:55.868Z,33.57
2018-05-21T18:20:22.298Z,34.13
2018-05-21T18:22:48.931Z,35.26
2018-05-21T18:25:16.067Z,35.97
2018-05-21T18:27:43.267Z,36.17
2018-05-21T18:30:09.779Z,37.24
2018-05-21T18:32:36.329Z,37.48
2018-05-21T18:35:02.846Z,37.54
2018-05-21T18:37:29.594Z,38.57
2018-05-21T18:39:56.057Z,40.11
2018-05-21T18:42:22.846Z,41.37
2018-05-21T18:44:49.447Z,44.88
2018-05-21T18:47:16.640Z,44.79
2018-05-21T18:49:44.015Z,44.49
2018-05-21T18:52:10.567Z,45.42
2018-05-21T18:54:37.098Z,46.95
2018-05-21T18:57:03.810Z,47.52
2018-05-21T18:59:31.317Z,48.57
2018-05-21T19:01:57.770Z,47.81
2018-05-21T19:04:24.460Z,48.59
2018-05-21T19:06:51.307Z,48.97
2018-05-21T19:09:17.745Z,48.42
2018-05-21T19:11:45.382Z,48.58
2018-05-21T19:14:11.917Z,48.85
2018-05-21T19:16:38.487Z,49.17
2018-05-21T19:19:04.967Z,49.10
2018-05-21T19:21:32.144Z,50.67
2018-05-21T19:23:59.266Z,50.91
2018-05-21T19:26:25.961Z,51.05
2018-05-21T19:28:52.473Z,52.67
2018-05-21T19:31:19.052Z,52.13
2018-05-21T19:33:45.879Z,51.60
2018-05-21T19:36:12.713Z,52.61
2018-05-21T19:38:39.142Z,53.43
2018-05-21T19:41:06.195Z,52.71
2018-05-21T19:43:32.597Z,52.72
2018-05-21T19:45:59.097Z,53.56
2018-05-21T19:48:26.387Z,54.92
2018-05-21T19:50:52.860Z,54.89
2018-05-21T19:53:20.491Z,55.09
2018-05-21T19:55:47.935Z,55.91
2018-05-21T19:58:15.471Z,56.73
2018-05-21T20:00:42.838Z,57.09
2018-05-21T20:03:09.240Z,57.85
2018-05-21T20:05:36.709Z,58.13
2018-05-21T20:08:04.693Z,57.41
2018-05-21T20:10:31.544Z,58.21
2018-05-21T20:12:58.038Z,58.31
2018-05-21T20:15:24.746Z,58.34
2018-05-21T20:17:51.284Z,58.51
2018-05-21T20:20:17.921Z,58.21
2018-05-21T20:22:44.626Z,57.81
2018-05-21T20:25:11.012Z,59.74
2018-05-21T20:27:37.526Z,58.94
2018-05-21T20:30:03.980Z,59.91
2018-05-21T20:32:30.498Z,59.47
2018-05-21T20:34:57.196Z,60.08
2018-05-21T20:37:23.763Z,59.89
2018-05-21T20:39:50.229Z,58.89
2018-05-21T20:42:16.687Z,58.93
2018-05-21T20:44:43.087Z,58.20
2018-05-21T20:47:10.909Z,58.26
2018-05-21T20:49:37.386Z,59.31
2018-05-21T20:52:03.754Z,58.66
2018-05-21T20:54:30.979Z,61.74
2018-05-21T20:56:57.389Z,62.64
2018-05-21T20:59:25.736Z,65.62
2018-05-21T21:01:53.657Z,65.19
2018-05-21T21:04:22.183Z,65.46
2018-05-21T21:06:50.309Z,64.70
2018-05-21T21:09:18.190Z,65.02
2018-05-21T21:11:45.763Z,64.02
2018-05-21T21:14:12.910Z,63.79
2018-05-21T21:16:40.104Z,63.23
2018-05-21T21:19:06.510Z,59.50
2018-05-21T21:21:32.880Z,57.89
2018-05-21T21:23:59.303Z,56.38
2018-05-21T21:26:25.982Z,54.71
2018-05-21T21:28:53.152Z,53.83
2018-05-21T21:31:20.304Z,54.33
2018-05-21T21:33:47.564Z,54.66
2018-05-21T21:36:13.949Z,54.36
2018-05-21T21:38:40.396Z,54.98
2018-05-21T21:41:07.061Z,53.70
2018-05-21T21:43:34.208Z,57.23
2018-05-21T21:46:01.354Z,56.42
2018-05-21T21:48:28.494Z,56.53
2018-05-21T21:50:55.697Z,58.84
2018-05-21T21:53:22.198Z,60.75
2018-05-21T21:55:48.691Z,62.63
2018-05-21T21:58:15.081Z,63.83
2018-05-21T22:00:41.531Z,66.21
2018-05-21T22:03:08.716Z,66.54
2018-05-21T22:05:35.193Z,67.59
2018-05-21T22:08:01.649Z,66.77
2018-05-21T22:10:28.187Z,66.29
2018-05-21T22:12:54.646Z,65.98
2018-05-21T22:15:21.084Z,65.71
2018-05-21T22:17:47.540Z,65.97
2018-05-21T22:20:13.984Z,67.02
2018-05-21T22:22:41.444Z,68.26
2018-05-21T22:25:14.718Z,68.38
2018-05-21T22:27:42.084Z,68.75
2018-05-21T22:30:09.402Z,69.98
2018-05-21T22:32:35.963Z,69.70
2018-05-21T22:35:03.220Z,71.23
2018-05-21T22:37:29.757Z,71.94
2018-05-21T22:39:57.083Z,71.88
2018-05-21T22:42:27.341Z,71.51
2018-05-21T22:44:53.746Z,71.35
2018-05-21T22:47:20.167Z,72.13
2018-05-21T22:49:46.752Z,71.37
2018-05-21T22:52:13.348Z,71.15
2018-05-21T22:54:39.766Z,71.17
2018-05-21T22:57:06.151Z,70.12
2018-05-21T22:59:32.522Z,70.73
2018-05-21T23:01:58.963Z,71.53
2018-05-21T23:04:25.388Z,71.20
2018-05-21T23:06:53.265Z,70.48
2018-05-21T23:09:19.661Z,70.17
2018-05-21T23:11:46.133Z,70.45
2018-05-21T23:14:13.391Z,70.40
2018-05-21T23:16:39.756Z,71.10
2018-05-21T23:19:06.151Z,71.62
2018-05-21T23:21:32.602Z,71.42
2018-05-21T23:23:59.218Z,72.88
2018-05-21T23:26:25.606Z,73.78
2018-05-21T23:28:52.455Z,74.61
2018-05-21T23:31:20.163Z,74.52
2018-05-21T23:33:47.665Z,74.60
2018-05-21T23:36:14.310Z,75.58
2018-05-21T23:38:40.722Z,75.77
2018-05-21T23:41:07.198Z,76.09
2018-05-21T23:43:33.660Z,76.19
2018-05-21T23:46:00.834Z,76.82
2018-05-21T23:48:28.080Z,77.41
2018-05-21T23:50:55.355Z,77.90
2018-05-21T23:53:21.856Z,77.43
2018-05-21T23:55:48.359Z,77.20
2018-05-21T23:58:14.860Z,77.80
